sensor_id;sensor_type;location;lat;lon;timestamp;pressure;altitude;pressure_sealevel;temperature;humidity
49709;BME280;35601;55.902;13.606;2023-02-19T00:01:51;100114.24;;;-1.39;73.26
49709;BME280;35601;55.902;13.606;2023-02-19T00:04:18;100107.26;;;-1.35;73.04
49709;BME280;35601;55.902;13.606;2023-02-19T00:06:43;100107.55;;;-1.43;73.15
49709;BME280;35601;55.902;13.606;2023-02-19T00:09:08;100117.51;;;-1.38;72.85
49709;BME280;35601;55.902;13.606;2023-02-19T00:11:34;100133.86;;;-1.42;73.23
49709;BME280;35601;55.902;13.606;2023-02-19T00:14:00;100136.99;;;-1.50;73.94
49709;BME280;35601;55.902;13.606;2023-02-19T00:16:27;100133.95;;;-1.55;74.24
49709;BME280;35601;55.902;13.606;2023-02-19T00:18:49;100133.48;;;-1.58;74.41
49709;BME280;35601;55.902;13.606;2023-02-19T00:21:15;100132.25;;;-1.59;73.98
49709;BME280;35601;55.902;13.606;2023-02-19T00:23:40;100126.95;;;-1.60;73.72
49709;BME280;35601;55.902;13.606;2023-02-19T00:26:07;100116.77;;;-1.61;73.38
49709;BME280;35601;55.902;13.606;2023-02-19T00:28:31;100108.64;;;-1.40;73.35
49709;BME280;35601;55.902;13.606;2023-02-19T00:31:03;100110.18;;;-1.37;73.07
49709;BME280;35601;55.902;13.606;2023-02-19T00:33:22;100114.33;;;-1.67;72.92
49709;BME280;35601;55.902;13.606;2023-02-19T00:35:47;100119.05;;;-1.49;73.13
49709;BME280;35601;55.902;13.606;2023-02-19T00:38:12;100125.02;;;-1.57;73.89
49709;BME280;35601;55.902;13.606;2023-02-19T00:40:38;100132.86;;;-1.67;74.66
49709;BME280;35601;55.902;13.606;2023-02-19T00:43:03;100135.53;;;-1.63;74.39
49709;BME280;35601;55.902;13.606;2023-02-19T00:45:28;100133.33;;;-1.62;74.14
49709;BME280;35601;55.902;13.606;2023-02-19T00:47:54;100127.87;;;-1.62;73.79
49709;BME280;35601;55.902;13.606;2023-02-19T00:50:19;100129.31;;;-1.36;73.48
49709;BME280;35601;55.902;13.606;2023-02-19T00:52:44;100124.23;;;-1.40;73.13
49709;BME280;35601;55.902;13.606;2023-02-19T00:55:10;100124.46;;;-1.71;72.53
49709;BME280;35601;55.902;13.606;2023-02-19T00:57:35;100123.31;;;-1.83;71.75
49709;BME280;35601;55.902;13.606;2023-02-19T01:00:00;100122.19;;;-1.64;71.69
49709;BME280;35601;55.902;13.606;2023-02-19T01:02:26;100125.48;;;-1.73;71.53
49709;BME280;35601;55.902;13.606;2023-02-19T01:04:51;100125.54;;;-1.79;71.64
49709;BME280;35601;55.902;13.606;2023-02-19T01:07:17;100124.54;;;-2.16;71.33
49709;BME280;35601;55.902;13.606;2023-02-19T01:09:42;100121.13;;;-2.25;71.28
49709;BME280;35601;55.902;13.606;2023-02-19T01:12:07;100121.36;;;-2.71;72.18
49709;BME280;35601;55.902;13.606;2023-02-19T01:14:33;100125.43;;;-2.29;72.04
49709;BME280;35601;55.902;13.606;2023-02-19T01:16:58;100130.36;;;-2.43;71.19
49709;BME280;35601;55.902;13.606;2023-02-19T01:19:24;100134.75;;;-2.52;71.33
49709;BME280;35601;55.902;13.606;2023-02-19T01:21:49;100133.57;;;-2.62;71.39
49709;BME280;35601;55.902;13.606;2023-02-19T01:24:14;100140.63;;;-2.69;71.55
49709;BME280;35601;55.902;13.606;2023-02-19T01:26:39;100139.39;;;-2.53;71.69
49709;BME280;35601;55.902;13.606;2023-02-19T01:29:05;100140.24;;;-2.61;71.77
49709;BME280;35601;55.902;13.606;2023-02-19T01:31:30;100143.77;;;-2.67;71.67
49709;BME280;35601;55.902;13.606;2023-02-19T01:33:57;100147.44;;;-2.82;72.21
49709;BME280;35601;55.902;13.606;2023-02-19T01:36:22;100155.77;;;-3.13;72.35
49709;BME280;35601;55.902;13.606;2023-02-19T01:38:46;100154.90;;;-3.20;72.24
49709;BME280;35601;55.902;13.606;2023-02-19T01:41:14;100155.37;;;-3.27;72.35
49709;BME280;35601;55.902;13.606;2023-02-19T01:46:03;100160.28;;;-3.09;72.81
49709;BME280;35601;55.902;13.606;2023-02-19T01:48:31;100162.90;;;-3.11;73.10
49709;BME280;35601;55.902;13.606;2023-02-19T01:50:57;100162.04;;;-3.33;73.08
49709;BME280;35601;55.902;13.606;2023-02-19T01:53:22;100163.00;;;-3.13;73.33
49709;BME280;35601;55.902;13.606;2023-02-19T01:55:47;100165.61;;;-2.90;73.59
49709;BME280;35601;55.902;13.606;2023-02-19T01:58:10;100169.03;;;-2.91;73.71
49709;BME280;35601;55.902;13.606;2023-02-19T02:00:36;100171.06;;;-2.94;73.87
49709;BME280;35601;55.902;13.606;2023-02-19T02:03:01;100172.23;;;-2.95;73.98
49709;BME280;35601;55.902;13.606;2023-02-19T02:05:35;100170.31;;;-2.95;74.21
49709;BME280;35601;55.902;13.606;2023-02-19T02:07:51;100168.87;;;-3.18;74.48
49709;BME280;35601;55.902;13.606;2023-02-19T02:10:17;100170.79;;;-3.19;74.52
49709;BME280;35601;55.902;13.606;2023-02-19T02:12:42;100175.27;;;-3.22;75.14
49709;BME280;35601;55.902;13.606;2023-02-19T02:15:08;100174.63;;;-3.22;76.15
49709;BME280;35601;55.902;13.606;2023-02-19T02:17:40;100174.20;;;-3.22;76.65
49709;BME280;35601;55.902;13.606;2023-02-19T02:20:11;100169.56;;;-2.92;77.50
49709;BME280;35601;55.902;13.606;2023-02-19T02:22:27;100169.57;;;-3.15;77.40
49709;BME280;35601;55.902;13.606;2023-02-19T02:27:30;100175.47;;;-3.02;78.37
49709;BME280;35601;55.902;13.606;2023-02-19T02:29:49;100173.34;;;-2.98;79.06
49709;BME280;35601;55.902;13.606;2023-02-19T02:32:09;100175.33;;;-3.12;79.30
49709;BME280;35601;55.902;13.606;2023-02-19T02:34:35;100176.03;;;-3.07;79.04
49709;BME280;35601;55.902;13.606;2023-02-19T02:36:56;100174.81;;;-2.54;79.09
49709;BME280;35601;55.902;13.606;2023-02-19T02:39:24;100172.15;;;-2.71;78.98
49709;BME280;35601;55.902;13.606;2023-02-19T02:41:49;100170.87;;;-2.68;78.80
49709;BME280;35601;55.902;13.606;2023-02-19T02:44:12;100169.75;;;-2.61;78.51
49709;BME280;35601;55.902;13.606;2023-02-19T02:46:40;100172.06;;;-2.81;78.34
49709;BME280;35601;55.902;13.606;2023-02-19T02:49:05;100174.42;;;-2.75;77.90
49709;BME280;35601;55.902;13.606;2023-02-19T02:51:30;100177.52;;;-2.49;77.42
49709;BME280;35601;55.902;13.606;2023-02-19T02:53:56;100178.05;;;-2.73;77.33
49709;BME280;35601;55.902;13.606;2023-02-19T02:56:20;100172.28;;;-2.70;76.89
49709;BME280;35601;55.902;13.606;2023-02-19T02:58:45;100171.70;;;-2.64;76.63
49709;BME280;35601;55.902;13.606;2023-02-19T03:01:13;100176.99;;;-2.61;76.21
49709;BME280;35601;55.902;13.606;2023-02-19T03:03:37;100183.94;;;-2.39;75.70
49709;BME280;35601;55.902;13.606;2023-02-19T03:06:03;100183.35;;;-2.63;75.46
49709;BME280;35601;55.902;13.606;2023-02-19T03:08:29;100181.80;;;-2.66;75.22
49709;BME280;35601;55.902;13.606;2023-02-19T03:10:54;100185.12;;;-2.44;75.12
49709;BME280;35601;55.902;13.606;2023-02-19T03:13:21;100190.35;;;-2.48;74.94
49709;BME280;35601;55.902;13.606;2023-02-19T03:15:45;100186.88;;;-2.50;74.80
49709;BME280;35601;55.902;13.606;2023-02-19T03:18:08;100187.19;;;-2.54;74.79
49709;BME280;35601;55.902;13.606;2023-02-19T03:20:34;100190.34;;;-2.61;74.68
49709;BME280;35601;55.902;13.606;2023-02-19T03:22:59;100191.07;;;-2.94;74.75
49709;BME280;35601;55.902;13.606;2023-02-19T03:25:25;100192.93;;;-2.78;75.18
49709;BME280;35601;55.902;13.606;2023-02-19T03:27:50;100199.62;;;-2.75;74.92
49709;BME280;35601;55.902;13.606;2023-02-19T03:30:16;100202.34;;;-2.80;74.40
49709;BME280;35601;55.902;13.606;2023-02-19T03:32:42;100204.09;;;-2.85;73.93
49709;BME280;35601;55.902;13.606;2023-02-19T03:35:08;100206.11;;;-2.93;73.41
49709;BME280;35601;55.902;13.606;2023-02-19T03:37:34;100208.71;;;-3.24;73.55
49709;BME280;35601;55.902;13.606;2023-02-19T03:39:56;100205.76;;;-3.05;73.48
49709;BME280;35601;55.902;13.606;2023-02-19T03:42:30;100209.75;;;-2.89;73.49
49709;BME280;35601;55.902;13.606;2023-02-19T03:44:54;100212.73;;;-3.18;73.39
49709;BME280;35601;55.902;13.606;2023-02-19T03:47:16;100215.87;;;-3.23;73.53
49709;BME280;35601;55.902;13.606;2023-02-19T03:49:41;100214.21;;;-3.25;73.01
49709;BME280;35601;55.902;13.606;2023-02-19T03:52:09;100218.57;;;-3.32;72.95
49709;BME280;35601;55.902;13.606;2023-02-19T03:54:33;100216.58;;;-3.11;72.84
49709;BME280;35601;55.902;13.606;2023-02-19T03:56:58;100215.02;;;-3.40;72.89
49709;BME280;35601;55.902;13.606;2023-02-19T03:59:23;100218.21;;;-3.46;72.77
49709;BME280;35601;55.902;13.606;2023-02-19T04:01:46;100218.82;;;-3.55;72.81
49709;BME280;35601;55.902;13.606;2023-02-19T04:04:15;100217.62;;;-3.39;72.78
49709;BME280;35601;55.902;13.606;2023-02-19T04:06:36;100221.99;;;-3.64;72.66
49709;BME280;35601;55.902;13.606;2023-02-19T04:09:02;100225.28;;;-3.47;72.78
49709;BME280;35601;55.902;13.606;2023-02-19T04:11:26;100226.60;;;-3.63;73.13
49709;BME280;35601;55.902;13.606;2023-02-19T04:13:55;100234.39;;;-3.65;72.79
49709;BME280;35601;55.902;13.606;2023-02-19T04:16:19;100238.79;;;-3.72;72.60
49709;BME280;35601;55.902;13.606;2023-02-19T04:18:43;100239.11;;;-3.85;72.93
49709;BME280;35601;55.902;13.606;2023-02-19T04:21:08;100239.85;;;-3.86;73.04
49709;BME280;35601;55.902;13.606;2023-02-19T04:23:35;100240.96;;;-3.88;73.27
49709;BME280;35601;55.902;13.606;2023-02-19T04:25:59;100241.92;;;-3.66;73.38
49709;BME280;35601;55.902;13.606;2023-02-19T04:28:23;100246.25;;;-4.12;73.29
49709;BME280;35601;55.902;13.606;2023-02-19T04:30:48;100252.11;;;-3.88;73.45
49709;BME280;35601;55.902;13.606;2023-02-19T04:33:14;100252.95;;;-3.92;73.45
49709;BME280;35601;55.902;13.606;2023-02-19T04:35:39;100253.92;;;-3.91;73.53
49709;BME280;35601;55.902;13.606;2023-02-19T04:38:05;100251.18;;;-3.46;73.58
49709;BME280;35601;55.902;13.606;2023-02-19T04:40:30;100252.30;;;-3.94;73.86
49709;BME280;35601;55.902;13.606;2023-02-19T04:42:55;100254.79;;;-3.98;73.48
49709;BME280;35601;55.902;13.606;2023-02-19T04:45:21;100261.43;;;-3.79;73.32
49709;BME280;35601;55.902;13.606;2023-02-19T04:47:46;100263.29;;;-4.06;73.13
49709;BME280;35601;55.902;13.606;2023-02-19T04:50:12;100264.40;;;-4.08;73.25
49709;BME280;35601;55.902;13.606;2023-02-19T04:52:36;100270.40;;;-3.90;73.09
49709;BME280;35601;55.902;13.606;2023-02-19T04:55:02;100277.26;;;-3.69;72.91
49709;BME280;35601;55.902;13.606;2023-02-19T04:57:28;100282.62;;;-4.32;72.80
49709;BME280;35601;55.902;13.606;2023-02-19T04:59:53;100284.94;;;-4.36;72.63
49709;BME280;35601;55.902;13.606;2023-02-19T05:02:18;100283.52;;;-4.41;72.82
49709;BME280;35601;55.902;13.606;2023-02-19T05:04:44;100292.24;;;-4.22;73.22
49709;BME280;35601;55.902;13.606;2023-02-19T05:07:09;100298.46;;;-4.26;73.27
49709;BME280;35601;55.902;13.606;2023-02-19T05:09:35;100294.57;;;-4.24;73.08
49709;BME280;35601;55.902;13.606;2023-02-19T05:12:00;100291.23;;;-4.06;73.26
49709;BME280;35601;55.902;13.606;2023-02-19T05:14:26;100296.99;;;-4.06;73.30
49709;BME280;35601;55.902;13.606;2023-02-19T05:16:51;100301.45;;;-4.09;73.45
49709;BME280;35601;55.902;13.606;2023-02-19T05:19:16;100301.66;;;-4.33;73.41
49709;BME280;35601;55.902;13.606;2023-02-19T05:21:42;100301.39;;;-4.33;73.34
49709;BME280;35601;55.902;13.606;2023-02-19T05:24:07;100302.27;;;-4.37;73.17
49709;BME280;35601;55.902;13.606;2023-02-19T05:26:33;100302.81;;;-4.13;73.18
49709;BME280;35601;55.902;13.606;2023-02-19T05:28:58;100306.80;;;-4.63;73.22
49709;BME280;35601;55.902;13.606;2023-02-19T05:31:24;100309.30;;;-4.16;73.30
49709;BME280;35601;55.902;13.606;2023-02-19T05:33:50;100310.52;;;-4.17;73.31
49709;BME280;35601;55.902;13.606;2023-02-19T05:36:17;100311.89;;;-4.18;73.50
49709;BME280;35601;55.902;13.606;2023-02-19T05:38:41;100311.67;;;-4.19;73.58
49709;BME280;35601;55.902;13.606;2023-02-19T05:41:08;100310.07;;;-4.19;73.64
49709;BME280;35601;55.902;13.606;2023-02-19T05:43:31;100315.93;;;-4.20;73.66
49709;BME280;35601;55.902;13.606;2023-02-19T05:45:57;100319.62;;;-4.43;73.61
49709;BME280;35601;55.902;13.606;2023-02-19T05:48:22;100325.68;;;-4.22;73.53
49709;BME280;35601;55.902;13.606;2023-02-19T05:50:48;100328.81;;;-4.25;73.59
49709;BME280;35601;55.902;13.606;2023-02-19T05:53:13;100330.21;;;-4.46;73.58
49709;BME280;35601;55.902;13.606;2023-02-19T05:55:38;100333.94;;;-4.47;73.52
49709;BME280;35601;55.902;13.606;2023-02-19T05:58:03;100341.02;;;-4.24;73.42
49709;BME280;35601;55.902;13.606;2023-02-19T06:00:30;100347.84;;;-5.14;73.32
49709;BME280;35601;55.902;13.606;2023-02-19T06:02:54;100349.82;;;-4.57;72.97
49709;BME280;35601;55.902;13.606;2023-02-19T06:05:20;100350.92;;;-4.60;72.86
49709;BME280;35601;55.902;13.606;2023-02-19T06:07:45;100357.53;;;-4.67;72.93
49709;BME280;35601;55.902;13.606;2023-02-19T06:10:11;100366.96;;;-4.69;72.80
49709;BME280;35601;55.902;13.606;2023-02-19T06:12:36;100369.92;;;-4.25;72.70
49709;BME280;35601;55.902;13.606;2023-02-19T06:15:02;100371.89;;;-4.25;72.80
49709;BME280;35601;55.902;13.606;2023-02-19T06:17:26;100376.24;;;-4.52;72.80
49709;BME280;35601;55.902;13.606;2023-02-19T06:19:52;100385.06;;;-4.32;72.70
49709;BME280;35601;55.902;13.606;2023-02-19T06:22:17;100385.41;;;-4.34;72.77
49709;BME280;35601;55.902;13.606;2023-02-19T06:24:43;100387.84;;;-4.62;72.83
49709;BME280;35601;55.902;13.606;2023-02-19T06:27:08;100388.73;;;-4.39;72.87
49709;BME280;35601;55.902;13.606;2023-02-19T06:29:34;100394.73;;;-4.42;72.74
49709;BME280;35601;55.902;13.606;2023-02-19T06:31:59;100400.19;;;-4.46;72.88
49709;BME280;35601;55.902;13.606;2023-02-19T06:34:25;100406.43;;;-4.46;72.79
49709;BME280;35601;55.902;13.606;2023-02-19T06:36:50;100405.71;;;-4.49;72.55
49709;BME280;35601;55.902;13.606;2023-02-19T06:39:15;100402.06;;;-4.45;72.53
49709;BME280;35601;55.902;13.606;2023-02-19T06:41:41;100402.61;;;-4.50;72.97
49709;BME280;35601;55.902;13.606;2023-02-19T06:44:06;100406.99;;;-4.56;73.74
49709;BME280;35601;55.902;13.606;2023-02-19T06:46:32;100407.57;;;-4.63;74.98
49709;BME280;35601;55.902;13.606;2023-02-19T06:48:57;100407.78;;;-4.75;77.56
49709;BME280;35601;55.902;13.606;2023-02-19T06:51:23;100408.42;;;-4.56;77.01
49709;BME280;35601;55.902;13.606;2023-02-19T06:53:48;100413.59;;;-4.51;76.50
49709;BME280;35601;55.902;13.606;2023-02-19T06:56:22;100416.63;;;-4.44;76.34
49709;BME280;35601;55.902;13.606;2023-02-19T06:58:39;100420.67;;;-4.39;76.52
49709;BME280;35601;55.902;13.606;2023-02-19T07:01:04;100425.26;;;-4.26;76.53
49709;BME280;35601;55.902;13.606;2023-02-19T07:03:29;100434.53;;;-4.14;76.22
49709;BME280;35601;55.902;13.606;2023-02-19T07:05:58;100440.41;;;-4.07;76.32
49709;BME280;35601;55.902;13.606;2023-02-19T07:08:20;100438.94;;;-3.97;76.21
49709;BME280;35601;55.902;13.606;2023-02-19T07:10:54;100435.31;;;-3.90;76.56
49709;BME280;35601;55.902;13.606;2023-02-19T07:13:11;100440.04;;;-3.99;78.12
49709;BME280;35601;55.902;13.606;2023-02-19T07:15:36;100443.86;;;-4.26;78.81
49709;BME280;35601;55.902;13.606;2023-02-19T07:18:02;100445.66;;;-4.21;79.18
49709;BME280;35601;55.902;13.606;2023-02-19T07:20:27;100448.46;;;-4.25;79.79
49709;BME280;35601;55.902;13.606;2023-02-19T07:22:53;100455.05;;;-3.90;79.89
49709;BME280;35601;55.902;13.606;2023-02-19T07:25:18;100459.25;;;-3.71;79.25
49709;BME280;35601;55.902;13.606;2023-02-19T07:27:44;100459.43;;;-3.83;80.02
49709;BME280;35601;55.902;13.606;2023-02-19T07:30:10;100457.78;;;-3.78;79.63
49709;BME280;35601;55.902;13.606;2023-02-19T07:32:35;100463.14;;;-3.85;78.77
49709;BME280;35601;55.902;13.606;2023-02-19T07:35:00;100467.45;;;-3.78;78.45
49709;BME280;35601;55.902;13.606;2023-02-19T07:37:26;100473.40;;;-3.67;78.76
49709;BME280;35601;55.902;13.606;2023-02-19T07:39:51;100474.07;;;-3.56;78.61
49709;BME280;35601;55.902;13.606;2023-02-19T07:42:17;100475.95;;;-3.46;78.44
49709;BME280;35601;55.902;13.606;2023-02-19T07:44:42;100481.63;;;-3.34;78.48
49709;BME280;35601;55.902;13.606;2023-02-19T07:47:08;100487.41;;;-3.14;78.14
49709;BME280;35601;55.902;13.606;2023-02-19T07:49:33;100490.25;;;-3.37;78.32
49709;BME280;35601;55.902;13.606;2023-02-19T07:51:59;100493.89;;;-3.28;78.43
49709;BME280;35601;55.902;13.606;2023-02-19T07:54:24;100491.99;;;-3.14;77.97
49709;BME280;35601;55.902;13.606;2023-02-19T07:56:49;100493.64;;;-3.05;77.67
49709;BME280;35601;55.902;13.606;2023-02-19T07:59:15;100495.56;;;-3.06;77.86
49709;BME280;35601;55.902;13.606;2023-02-19T08:01:40;100493.27;;;-3.05;77.58
49709;BME280;35601;55.902;13.606;2023-02-19T08:04:06;100496.48;;;-3.05;77.42
49709;BME280;35601;55.902;13.606;2023-02-19T08:06:31;100492.63;;;-3.19;77.18
49709;BME280;35601;55.902;13.606;2023-02-19T08:08:56;100490.50;;;-2.82;76.66
49709;BME280;35601;55.902;13.606;2023-02-19T08:11:22;100493.39;;;-2.70;76.34
49709;BME280;35601;55.902;13.606;2023-02-19T08:13:48;100501.45;;;-2.63;75.90
49709;BME280;35601;55.902;13.606;2023-02-19T08:16:13;100503.62;;;-2.44;74.49
49709;BME280;35601;55.902;13.606;2023-02-19T08:18:38;100505.69;;;-2.48;73.81
49709;BME280;35601;55.902;13.606;2023-02-19T08:21:04;100512.96;;;-2.48;72.85
49709;BME280;35601;55.902;13.606;2023-02-19T08:23:29;100516.55;;;-2.22;71.91
49709;BME280;35601;55.902;13.606;2023-02-19T08:25:57;100517.46;;;-2.33;70.91
49709;BME280;35601;55.902;13.606;2023-02-19T08:28:20;100519.47;;;-2.50;70.39
49709;BME280;35601;55.902;13.606;2023-02-19T08:30:46;100525.38;;;-2.20;70.04
49709;BME280;35601;55.902;13.606;2023-02-19T08:33:13;100525.71;;;-2.30;69.46
49709;BME280;35601;55.902;13.606;2023-02-19T08:35:36;100527.45;;;-2.12;68.93
49709;BME280;35601;55.902;13.606;2023-02-19T08:38:02;100529.19;;;-1.80;68.16
49709;BME280;35601;55.902;13.606;2023-02-19T08:40:27;100528.52;;;-1.97;66.88
49709;BME280;35601;55.902;13.606;2023-02-19T08:42:52;100531.04;;;-1.97;66.90
49709;BME280;35601;55.902;13.606;2023-02-19T08:45:18;100533.92;;;-1.84;67.01
49709;BME280;35601;55.902;13.606;2023-02-19T08:47:43;100528.96;;;-2.03;66.03
49709;BME280;35601;55.902;13.606;2023-02-19T08:50:09;100529.09;;;-1.71;65.95
49709;BME280;35601;55.902;13.606;2023-02-19T08:52:34;100524.94;;;-1.63;64.93
49709;BME280;35601;55.902;13.606;2023-02-19T08:54:59;100529.47;;;-1.76;65.74
49709;BME280;35601;55.902;13.606;2023-02-19T08:57:25;100531.63;;;-1.27;65.72
49709;BME280;35601;55.902;13.606;2023-02-19T08:59:50;100536.60;;;-1.31;65.08
49709;BME280;35601;55.902;13.606;2023-02-19T09:02:15;100542.58;;;-1.37;64.77
49709;BME280;35601;55.902;13.606;2023-02-19T09:04:40;100541.81;;;-1.17;65.05
49709;BME280;35601;55.902;13.606;2023-02-19T09:07:06;100543.65;;;-1.02;65.15
49709;BME280;35601;55.902;13.606;2023-02-19T09:09:31;100546.53;;;-1.14;63.69
49709;BME280;35601;55.902;13.606;2023-02-19T09:11:56;100551.16;;;-0.77;64.34
49709;BME280;35601;55.902;13.606;2023-02-19T09:14:22;100554.87;;;-1.07;64.64
49709;BME280;35601;55.902;13.606;2023-02-19T09:16:47;100563.45;;;-0.81;64.84
49709;BME280;35601;55.902;13.606;2023-02-19T09:19:12;100568.14;;;-0.35;63.96
49709;BME280;35601;55.902;13.606;2023-02-19T09:21:38;100568.73;;;-0.52;63.62
49709;BME280;35601;55.902;13.606;2023-02-19T09:24:03;100566.10;;;-0.52;63.17
49709;BME280;35601;55.902;13.606;2023-02-19T09:26:28;100567.07;;;-0.29;63.66
49709;BME280;35601;55.902;13.606;2023-02-19T09:28:54;100568.52;;;-0.73;63.06
49709;BME280;35601;55.902;13.606;2023-02-19T09:31:19;100571.41;;;-0.63;64.29
49709;BME280;35601;55.902;13.606;2023-02-19T09:33:46;100576.02;;;-0.45;62.76
49709;BME280;35601;55.902;13.606;2023-02-19T09:36:10;100585.09;;;-0.18;62.93
49709;BME280;35601;55.902;13.606;2023-02-19T09:38:35;100584.61;;;-0.28;61.29
49709;BME280;35601;55.902;13.606;2023-02-19T09:41:06;100586.86;;;-0.18;61.58
49709;BME280;35601;55.902;13.606;2023-02-19T09:43:27;100590.83;;;-0.16;61.83
49709;BME280;35601;55.902;13.606;2023-02-19T09:45:58;100599.36;;;0.04;61.52
49709;BME280;35601;55.902;13.606;2023-02-19T09:48:17;100590.67;;;0.06;61.09
49709;BME280;35601;55.902;13.606;2023-02-19T09:50:45;100598.01;;;0.28;61.22
49709;BME280;35601;55.902;13.606;2023-02-19T09:53:13;100597.09;;;0.09;61.12
49709;BME280;35601;55.902;13.606;2023-02-19T09:55:34;100601.42;;;0.32;60.26
49709;BME280;35601;55.902;13.606;2023-02-19T09:58:00;100608.73;;;0.64;60.06
49709;BME280;35601;55.902;13.606;2023-02-19T10:00:26;100600.24;;;0.32;59.14
49709;BME280;35601;55.902;13.606;2023-02-19T10:02:51;100599.76;;;0.50;59.94
49709;BME280;35601;55.902;13.606;2023-02-19T10:05:15;100603.46;;;0.31;59.58
49709;BME280;35601;55.902;13.606;2023-02-19T10:07:42;100605.67;;;0.62;58.68
49709;BME280;35601;55.902;13.606;2023-02-19T10:12:31;100614.01;;;1.05;56.63
49709;BME280;35601;55.902;13.606;2023-02-19T10:15:00;100618.51;;;1.29;55.87
49709;BME280;35601;55.902;13.606;2023-02-19T10:17:23;100615.40;;;1.58;54.71
49709;BME280;35601;55.902;13.606;2023-02-19T10:19:46;100629.37;;;1.90;54.92
49709;BME280;35601;55.902;13.606;2023-02-19T10:22:12;100630.42;;;1.85;53.78
49709;BME280;35601;55.902;13.606;2023-02-19T10:24:39;100627.26;;;1.79;52.39
49709;BME280;35601;55.902;13.606;2023-02-19T10:27:02;100627.58;;;1.82;52.05
49709;BME280;35601;55.902;13.606;2023-02-19T10:29:27;100635.26;;;1.85;50.45
49709;BME280;35601;55.902;13.606;2023-02-19T10:34:20;100639.65;;;2.02;49.62
49709;BME280;35601;55.902;13.606;2023-02-19T10:36:46;100640.32;;;1.71;49.54
49709;BME280;35601;55.902;13.606;2023-02-19T10:41:38;100636.15;;;1.52;49.49
49709;BME280;35601;55.902;13.606;2023-02-19T10:44:04;100644.53;;;1.61;50.23
49709;BME280;35601;55.902;13.606;2023-02-19T10:46:27;100653.12;;;1.51;50.89
49709;BME280;35601;55.902;13.606;2023-02-19T10:48:52;100654.59;;;1.53;49.34
49709;BME280;35601;55.902;13.606;2023-02-19T10:51:15;100656.55;;;1.69;50.25
49709;BME280;35601;55.902;13.606;2023-02-19T10:53:43;100653.08;;;1.80;50.09
49709;BME280;35601;55.902;13.606;2023-02-19T10:56:07;100642.81;;;1.55;50.66
49709;BME280;35601;55.902;13.606;2023-02-19T10:58:31;100646.44;;;1.75;50.26
49709;BME280;35601;55.902;13.606;2023-02-19T11:01:12;100642.96;;;1.85;48.67
49709;BME280;35601;55.902;13.606;2023-02-19T11:03:22;100658.02;;;1.85;49.67
49709;BME280;35601;55.902;13.606;2023-02-19T11:05:53;100666.86;;;1.83;49.38
49709;BME280;35601;55.902;13.606;2023-02-19T11:08:20;100672.81;;;2.22;47.23
49709;BME280;35601;55.902;13.606;2023-02-19T11:10:38;100672.85;;;2.54;47.51
49709;BME280;35601;55.902;13.606;2023-02-19T11:13:05;100676.60;;;2.28;47.16
49709;BME280;35601;55.902;13.606;2023-02-19T11:15:30;100672.13;;;2.34;46.64
49709;BME280;35601;55.902;13.606;2023-02-19T11:17:55;100670.15;;;2.56;46.62
49709;BME280;35601;55.902;13.606;2023-02-19T11:20:19;100673.28;;;1.97;46.52
49709;BME280;35601;55.902;13.606;2023-02-19T11:22:44;100679.29;;;2.28;46.50
49709;BME280;35601;55.902;13.606;2023-02-19T11:25:18;100682.42;;;2.28;46.01
49709;BME280;35601;55.902;13.606;2023-02-19T11:27:35;100679.59;;;2.00;45.85
49709;BME280;35601;55.902;13.606;2023-02-19T11:32:27;100669.69;;;2.24;46.17
49709;BME280;35601;55.902;13.606;2023-02-19T11:34:51;100674.88;;;2.16;47.35
49709;BME280;35601;55.902;13.606;2023-02-19T11:37:17;100672.76;;;2.10;47.57
49709;BME280;35601;55.902;13.606;2023-02-19T11:39:43;100676.81;;;2.19;47.07
49709;BME280;35601;55.902;13.606;2023-02-19T11:44:40;100685.37;;;2.29;47.11
49709;BME280;35601;55.902;13.606;2023-02-19T11:47:10;100696.53;;;2.37;47.53
49709;BME280;35601;55.902;13.606;2023-02-19T11:49:31;100692.87;;;2.56;48.29
49709;BME280;35601;55.902;13.606;2023-02-19T11:51:57;100689.22;;;2.58;46.91
49709;BME280;35601;55.902;13.606;2023-02-19T11:54:25;100682.21;;;2.84;46.79
49709;BME280;35601;55.902;13.606;2023-02-19T11:56:39;100682.37;;;2.36;46.63
49709;BME280;35601;55.902;13.606;2023-02-19T11:59:11;100689.20;;;2.68;47.47
49709;BME280;35601;55.902;13.606;2023-02-19T12:01:40;100701.92;;;2.24;47.12
49709;BME280;35601;55.902;13.606;2023-02-19T12:06:27;100685.00;;;2.01;48.48
49709;BME280;35601;55.902;13.606;2023-02-19T12:09:02;100690.86;;;1.93;48.19
49709;BME280;35601;55.902;13.606;2023-02-19T12:11:18;100696.23;;;1.96;48.82
49709;BME280;35601;55.902;13.606;2023-02-19T12:13:48;100690.87;;;1.76;49.81
49709;BME280;35601;55.902;13.606;2023-02-19T12:16:11;100689.65;;;1.71;50.27
49709;BME280;35601;55.902;13.606;2023-02-19T12:18:43;100692.22;;;2.15;50.52
49709;BME280;35601;55.902;13.606;2023-02-19T12:21:01;100692.29;;;1.86;49.56
49709;BME280;35601;55.902;13.606;2023-02-19T12:23:34;100692.75;;;2.38;48.97
49709;BME280;35601;55.902;13.606;2023-02-19T12:25:50;100698.26;;;2.13;48.92
49709;BME280;35601;55.902;13.606;2023-02-19T12:28:29;100696.08;;;1.95;47.22
49709;BME280;35601;55.902;13.606;2023-02-19T12:30:43;100691.81;;;1.83;48.17
49709;BME280;35601;55.902;13.606;2023-02-19T12:35:31;100695.26;;;1.28;50.12
49709;BME280;35601;55.902;13.606;2023-02-19T12:37:54;100694.40;;;1.26;50.12
49709;BME280;35601;55.902;13.606;2023-02-19T12:40:25;100686.02;;;1.20;50.88
49709;BME280;35601;55.902;13.606;2023-02-19T12:42:50;100691.75;;;1.55;50.75
49709;BME280;35601;55.902;13.606;2023-02-19T12:45:09;100688.00;;;1.52;51.09
49709;BME280;35601;55.902;13.606;2023-02-19T12:47:33;100692.65;;;1.62;50.59
49709;BME280;35601;55.902;13.606;2023-02-19T12:50:02;100691.80;;;1.57;50.23
49709;BME280;35601;55.902;13.606;2023-02-19T12:52:24;100688.16;;;1.55;51.00
49709;BME280;35601;55.902;13.606;2023-02-19T12:54:48;100684.81;;;1.39;49.75